Time;durP1;ratioP1;P1;durP2;ratioP2;P2;SDS_P1;SDS_P2;PMS_P1;PMS_P2;Temp;Humidity;BMP_temperature;BMP_pressure;BME280_temperature;BME280_humidity;BME280_pressure;Samples;Min_cycle;Max_cycle;Signal;HPM_P1;HPM_P2
2023/04/19 00:02:03;;;;;;;18.03;13.47;;;;;;;10.97;90.18;98694.16;4172862;28;20651;-85
2023/04/19 00:04:06;;;;;;;20.80;14.83;;;;;;;10.99;90.35;98690.53;4187352;28;21044;-84
2023/04/19 00:06:13;;;;;;;24.23;14.80;;;;;;;10.94;89.67;98687.34;4192121;28;20682;-84
2023/04/19 00:08:16;;;;;;;18.47;14.17;;;;;;;10.95;90.14;98691.66;4172506;28;20637;-84
2023/04/19 00:10:19;;;;;;;22.03;14.03;;;;;;;10.98;89.79;98693.25;4187870;28;20628;-84
2023/04/19 00:12:24;;;;;;;18.90;14.80;;;;;;;10.98;89.80;98701.91;4172466;28;21266;-84
2023/04/19 00:14:27;;;;;;;20.33;15.13;;;;;;;10.93;90.72;98695.25;4186982;28;20646;-84
2023/04/19 00:16:30;;;;;;;18.87;14.17;;;;;;;11.02;89.58;98689.50;4188056;28;20647;-84
2023/04/19 00:18:33;;;;;;;17.87;14.10;;;;;;;11.02;89.14;98692.97;4187042;28;20662;-84
2023/04/19 00:20:36;;;;;;;18.50;14.60;;;;;;;11.01;90.02;98699.09;4187151;28;20678;-84
2023/04/19 00:22:39;;;;;;;18.57;13.70;;;;;;;10.99;89.03;98692.28;4186068;28;20748;-84
2023/04/19 00:24:42;;;;;;;21.30;15.00;;;;;;;10.98;88.79;98696.69;4184213;28;20677;-84
2023/04/19 00:26:45;;;;;;;18.27;13.77;;;;;;;10.96;90.71;98685.50;4181344;28;20702;-84
2023/04/19 00:28:50;;;;;;;18.90;14.70;;;;;;;10.96;90.59;98682.91;4183884;28;20628;-85
2023/04/19 00:30:53;;;;;;;21.00;15.00;;;;;;;11.00;90.49;98691.38;4189701;28;20631;-85
2023/04/19 00:32:56;;;;;;;20.40;15.27;;;;;;;11.00;89.76;98694.81;4187373;28;20632;-84
2023/04/19 00:35:00;;;;;;;16.70;14.13;;;;;;;11.00;90.08;98688.75;4189422;28;20635;-84
2023/04/19 00:37:04;;;;;;;18.20;14.23;;;;;;;10.97;90.22;98689.78;4186984;28;20703;-85
2023/04/19 00:39:07;;;;;;;19.90;14.50;;;;;;;10.96;89.32;98698.56;4188608;28;20623;-84
2023/04/19 00:41:13;;;;;;;19.00;14.60;;;;;;;10.98;90.16;98691.47;4185532;28;20785;-84
2023/04/19 00:43:18;;;;;;;20.20;15.90;;;;;;;11.00;89.07;98684.38;4186694;28;20698;-84
2023/04/19 00:45:22;;;;;;;21.10;14.77;;;;;;;11.02;90.22;98689.50;4186470;28;20682;-84
2023/04/19 00:47:26;;;;;;;19.70;13.83;;;;;;;11.09;89.32;98686.41;4189003;28;21345;-85
2023/04/19 00:49:29;;;;;;;18.63;15.30;;;;;;;11.13;88.80;98682.69;4177072;28;21125;-84
2023/04/19 00:51:33;;;;;;;20.13;15.43;;;;;;;11.11;88.23;98683.72;4187785;28;21250;-84
2023/04/19 00:53:36;;;;;;;20.77;15.10;;;;;;;11.14;89.10;98684.38;4195016;28;22080;-84
2023/04/19 00:55:39;;;;;;;22.37;14.77;;;;;;;11.13;88.34;98685.31;4185136;28;21112;-84
2023/04/19 00:57:42;;;;;;;18.30;14.37;;;;;;;11.17;90.22;98691.19;4188449;28;20632;-84
2023/04/19 00:59:46;;;;;;;17.30;14.30;;;;;;;11.21;89.60;98685.69;4169844;28;20683;-84
2023/04/19 01:01:50;;;;;;;18.87;14.60;;;;;;;11.27;90.45;98687.09;4185269;28;21278;-84
2023/04/19 01:03:53;;;;;;;21.60;15.10;;;;;;;11.30;90.59;98688.56;4188094;28;20655;-84
2023/04/19 01:05:57;;;;;;;18.20;14.70;;;;;;;11.43;89.39;98692.09;4170072;28;20652;-84
2023/04/19 01:08:00;;;;;;;19.27;15.47;;;;;;;11.39;90.01;98693.22;4184134;28;20695;-84
2023/04/19 01:10:03;;;;;;;23.73;15.33;;;;;;;11.41;89.58;98691.38;4189036;28;20640;-84
2023/04/19 01:12:06;;;;;;;20.87;15.70;;;;;;;11.38;89.89;98685.47;4187086;28;20635;-84
2023/04/19 01:14:09;;;;;;;22.17;15.47;;;;;;;11.42;90.19;98685.19;4189910;28;21261;-84
2023/04/19 01:16:13;;;;;;;18.93;13.83;;;;;;;11.47;90.48;98684.94;4176294;28;21300;-84
2023/04/19 01:18:19;;;;;;;18.03;13.83;;;;;;;11.50;90.03;98679.53;4175270;28;20635;-84
2023/04/19 01:20:22;;;;;;;19.90;15.90;;;;;;;11.48;88.57;98677.00;4168261;28;20743;-84
2023/04/19 01:22:27;;;;;;;19.20;15.03;;;;;;;11.47;88.05;98684.94;4185831;28;20670;-84
2023/04/19 01:24:30;;;;;;;18.67;15.23;;;;;;;11.49;89.73;98683.09;4169894;28;20741;-84
2023/04/19 01:26:33;;;;;;;17.70;14.03;;;;;;;11.47;87.95;98682.31;4187916;28;20723;-84
2023/04/19 01:28:38;;;;;;;19.83;15.83;;;;;;;11.48;88.62;98676.16;4187926;28;21066;-84
2023/04/19 01:30:41;;;;;;;20.30;15.63;;;;;;;11.48;88.78;98671.78;4189137;28;20717;-84
2023/04/19 01:32:44;;;;;;;19.90;14.67;;;;;;;11.52;87.03;98673.28;4188325;28;21105;-84
2023/04/19 01:34:48;;;;;;;18.43;14.23;;;;;;;11.55;88.91;98667.84;4187629;28;20693;-84
2023/04/19 01:36:51;;;;;;;19.27;14.97;;;;;;;11.60;87.97;98662.34;4190880;28;20624;-84
2023/04/19 01:38:55;;;;;;;18.70;15.57;;;;;;;11.58;88.22;98662.44;4196045;28;20636;-84
2023/04/19 01:40:58;;;;;;;19.80;15.17;;;;;;;11.47;87.46;98656.19;4190851;28;20686;-84
2023/04/19 01:43:02;;;;;;;19.40;15.57;;;;;;;11.37;88.02;98653.31;4171506;28;20649;-84
2023/04/19 01:45:06;;;;;;;20.43;15.33;;;;;;;11.33;87.79;98653.59;4164302;28;20633;-85
2023/04/19 01:47:09;;;;;;;18.00;15.07;;;;;;;11.32;88.10;98654.50;4189731;28;20668;-84
2023/04/19 01:49:15;;;;;;;20.97;15.43;;;;;;;11.28;87.32;98653.03;4185651;28;20663;-84
2023/04/19 01:51:20;;;;;;;21.03;16.60;;;;;;;11.17;87.91;98644.19;4180125;28;20639;-84
2023/04/19 01:53:23;;;;;;;22.43;16.60;;;;;;;11.17;87.20;98646.78;4187160;28;20649;-84
2023/04/19 01:55:29;;;;;;;19.03;14.57;;;;;;;11.16;88.97;98653.81;4173402;28;21233;-83
2023/04/19 01:57:32;;;;;;;20.13;16.07;;;;;;;11.15;88.05;98644.28;4186502;28;20731;-84
2023/04/19 01:59:35;;;;;;;20.17;15.93;;;;;;;11.11;86.97;98639.34;4171086;28;20666;-84
2023/04/19 02:01:38;;;;;;;20.70;16.40;;;;;;;11.13;87.07;98634.88;4163189;28;21250;-84
2023/04/19 02:03:41;;;;;;;17.53;14.63;;;;;;;11.12;87.69;98641.84;4187185;28;20683;-84
2023/04/19 02:05:45;;;;;;;20.87;15.73;;;;;;;11.14;87.98;98637.41;4188462;28;20651;-84
2023/04/19 02:07:48;;;;;;;19.30;15.37;;;;;;;11.13;87.27;98638.31;4193150;28;20647;-84
2023/04/19 02:09:51;;;;;;;18.30;14.87;;;;;;;11.12;88.02;98636.63;4167600;28;20640;-84
2023/04/19 02:11:56;;;;;;;18.87;15.40;;;;;;;11.17;88.20;98632.00;4173240;28;20629;-84
2023/04/19 02:13:59;;;;;;;22.00;16.00;;;;;;;11.15;88.55;98631.22;4202269;28;20624;-84
2023/04/19 02:16:03;;;;;;;19.00;14.87;;;;;;;11.10;87.18;98629.84;4187354;28;20670;-84
2023/04/19 02:18:06;;;;;;;18.87;14.63;;;;;;;11.05;87.31;98624.06;4184464;28;20640;-84
2023/04/19 02:20:10;;;;;;;18.90;15.30;;;;;;;11.01;88.47;98625.19;4191729;28;20635;-84
2023/04/19 02:22:14;;;;;;;21.73;16.23;;;;;;;11.01;88.99;98619.97;4186469;28;20659;-83
2023/04/19 02:24:17;;;;;;;19.63;14.53;;;;;;;10.96;87.59;98612.44;4188675;28;20736;-84
2023/04/19 02:26:20;;;;;;;19.27;15.27;;;;;;;10.97;88.45;98613.25;4190961;28;20655;-84
2023/04/19 02:28:25;;;;;;;20.53;15.80;;;;;;;10.94;88.23;98614.28;4188046;28;20667;-84
2023/04/19 02:30:28;;;;;;;17.73;14.60;;;;;;;10.95;88.29;98612.53;4183307;28;20643;-83
2023/04/19 02:32:31;;;;;;;19.97;15.07;;;;;;;10.96;89.40;98612.44;4181857;28;21326;-83
2023/04/19 02:34:34;;;;;;;19.03;14.80;;;;;;;10.98;87.97;98613.16;4181546;28;20638;-84
2023/04/19 02:36:37;;;;;;;19.10;14.80;;;;;;;10.96;87.64;98604.59;4186920;28;20647;-84
2023/04/19 02:38:41;;;;;;;19.17;15.77;;;;;;;11.02;88.90;98604.22;4194136;28;20647;-83
2023/04/19 02:40:44;;;;;;;18.23;13.97;;;;;;;11.06;88.31;98610.91;4186633;28;20643;-83
2023/04/19 02:42:47;;;;;;;20.20;15.17;;;;;;;11.08;88.99;98605.59;4190678;28;20987;-84
2023/04/19 02:44:51;;;;;;;19.70;14.20;;;;;;;11.12;87.53;98604.47;4185419;28;20652;-84
2023/04/19 02:46:58;;;;;;;19.13;14.50;;;;;;;11.12;87.74;98604.47;4186989;28;21075;-83
2023/04/19 02:49:01;;;;;;;19.50;15.57;;;;;;;11.14;87.22;98613.91;4199641;28;20635;-84
2023/04/19 02:51:05;;;;;;;19.03;14.73;;;;;;;11.17;87.21;98607.63;4173612;28;20633;-84
2023/04/19 02:53:08;;;;;;;19.10;14.80;;;;;;;11.19;87.92;98611.00;4188604;28;20970;-84
2023/04/19 02:55:11;;;;;;;22.47;15.97;;;;;;;11.12;88.25;98618.38;4186317;28;21112;-84
2023/04/19 02:57:14;;;;;;;18.80;15.10;;;;;;;11.09;86.71;98610.72;4195946;28;21175;-84
2023/04/19 02:59:19;;;;;;;20.53;14.87;;;;;;;11.07;87.41;98607.38;4175609;28;20633;-83
2023/04/19 03:01:23;;;;;;;19.30;14.87;;;;;;;11.09;88.60;98618.56;4191218;28;20636;-83
2023/04/19 03:03:27;;;;;;;19.87;15.23;;;;;;;11.13;88.69;98619.22;4190612;28;20721;-84
2023/04/19 03:05:30;;;;;;;20.27;15.30;;;;;;;11.14;88.48;98613.06;4186571;28;20686;-84
2023/04/19 03:07:33;;;;;;;17.40;14.07;;;;;;;11.13;86.74;98612.22;4175201;28;20636;-83
2023/04/19 03:09:36;;;;;;;17.50;15.00;;;;;;;11.17;87.56;98605.03;4176701;28;21286;-84
2023/04/19 03:11:39;;;;;;;17.73;14.23;;;;;;;11.13;86.48;98599.16;4169854;28;20683;-84
2023/04/19 03:13:42;;;;;;;19.23;15.40;;;;;;;11.11;87.91;98600.19;4173833;28;20616;-84
2023/04/19 03:15:47;;;;;;;19.00;14.60;;;;;;;11.03;87.39;98598.06;4169045;28;20723;-84
2023/04/19 03:17:53;;;;;;;18.83;14.90;;;;;;;11.02;88.45;98603.38;4171435;28;20628;-84
2023/04/19 03:19:57;;;;;;;20.13;15.80;;;;;;;10.95;87.23;98599.47;4184448;28;20628;-84
2023/04/19 03:22:01;;;;;;;21.33;15.50;;;;;;;10.92;88.48;98597.88;4186955;28;20631;-83
2023/04/19 03:24:07;;;;;;;17.53;14.40;;;;;;;10.81;87.09;98597.72;4170579;28;20700;-84
2023/04/19 03:26:13;;;;;;;21.30;15.43;;;;;;;10.76;87.32;98592.88;4188306;28;20639;-83
2023/04/19 03:28:20;;;;;;;21.03;14.77;;;;;;;10.76;88.17;98596.31;4174877;28;22070;-84
2023/04/19 03:30:41;;;;;;;20.20;14.93;;;;;;;10.71;88.81;98590.53;4186317;28;20999;-84
2023/04/19 03:32:46;;;;;;;18.60;13.70;;;;;;;10.65;88.60;98587.47;4187779;28;20635;-84
2023/04/19 03:34:51;;;;;;;18.50;14.80;;;;;;;10.58;88.08;98580.94;4189394;28;20685;-84
2023/04/19 03:36:54;;;;;;;20.00;15.53;;;;;;;10.58;88.85;98586.16;4172498;28;20683;-83
2023/04/19 03:38:58;;;;;;;19.30;14.87;;;;;;;10.58;88.30;98584.38;4189446;28;21059;-84
2023/04/19 03:41:02;;;;;;;17.90;14.23;;;;;;;10.59;87.91;98582.63;4169071;28;20688;-84
2023/04/19 03:43:09;;;;;;;19.40;13.63;;;;;;;10.57;87.34;98584.47;4171646;28;20782;-84
2023/04/19 03:45:12;;;;;;;20.57;16.10;;;;;;;10.45;89.22;98580.03;4189464;28;20783;-84
2023/04/19 03:47:20;;;;;;;21.30;15.97;;;;;;;10.40;89.20;98582.91;4174074;28;20624;-84
2023/04/19 03:49:25;;;;;;;19.30;16.23;;;;;;;10.41;88.98;98573.28;4160681;28;20676;-84
2023/04/19 03:51:39;;;;;;;20.50;14.60;;;;;;;10.45;88.25;98574.81;4182024;28;20655;-83
2023/04/19 03:53:42;;;;;;;21.17;15.73;;;;;;;10.38;89.10;98574.31;4190699;28;20627;-84
2023/04/19 03:55:45;;;;;;;18.80;15.00;;;;;;;10.39;89.34;98576.00;4187426;28;20623;-84
2023/04/19 03:57:49;;;;;;;18.70;14.57;;;;;;;10.34;89.30;98579.78;4167332;28;20657;-84
2023/04/19 03:59:57;;;;;;;21.60;15.73;;;;;;;10.31;89.29;98569.56;4170846;28;21219;-84
2023/04/19 04:02:00;;;;;;;18.17;14.50;;;;;;;10.30;89.31;98570.50;4167763;28;20676;-84
2023/04/19 04:04:04;;;;;;;22.00;15.37;;;;;;;10.28;89.02;98569.72;4188455;28;20644;-84
2023/04/19 04:06:08;;;;;;;18.73;14.53;;;;;;;10.25;90.09;98564.69;4187933;28;20746;-83
2023/04/19 04:08:12;;;;;;;21.10;14.93;;;;;;;10.27;88.95;98567.22;4163340;28;21227;-84
2023/04/19 04:10:16;;;;;;;22.20;15.70;;;;;;;10.18;89.83;98572.97;4189157;28;20720;-84
2023/04/19 04:12:19;;;;;;;19.50;15.10;;;;;;;10.17;89.93;98564.31;4171487;28;20728;-83
2023/04/19 04:14:23;;;;;;;20.13;14.93;;;;;;;10.14;89.94;98572.31;4171958;28;20723;-84
2023/04/19 04:16:26;;;;;;;19.10;15.43;;;;;;;10.14;89.41;98566.28;4180937;28;20632;-83
2023/04/19 04:18:31;;;;;;;20.70;15.40;;;;;;;10.15;89.60;98571.41;4169763;28;21212;-83
2023/04/19 04:20:35;;;;;;;17.47;14.03;;;;;;;10.16;90.06;98573.06;4170820;28;21072;-83
2023/04/19 04:22:44;;;;;;;19.80;14.27;;;;;;;10.17;89.49;98574.75;4188355;28;20623;-83
2023/04/19 04:24:52;;;;;;;18.60;14.23;;;;;;;10.08;89.65;98567.47;4167758;28;21268;-84
2023/04/19 04:26:59;;;;;;;18.37;14.27;;;;;;;10.04;90.18;98573.81;4182125;28;20727;-84
2023/04/19 04:29:05;;;;;;;17.30;14.10;;;;;;;10.06;89.63;98571.94;4168014;28;20632;-84
2023/04/19 04:31:11;;;;;;;18.43;15.30;;;;;;;10.07;90.20;98576.25;4176718;28;20502;-83
2023/04/19 04:33:16;;;;;;;21.83;15.75;;;;;;;10.08;89.80;98580.50;4163937;28;21228;-84
2023/04/19 04:35:20;;;;;;;20.55;15.18;;;;;;;10.08;90.00;98579.66;4185979;28;20197;-84
2023/04/19 04:37:36;;;;;;;21.05;15.15;;;;;;;10.11;90.26;98582.09;4185931;28;20301;-84
2023/04/19 04:39:40;;;;;;;19.10;14.30;;;;;;;10.12;89.37;98581.19;4184439;28;20241;-84
2023/04/19 04:41:48;;;;;;;17.50;14.03;;;;;;;10.08;90.00;98580.50;4167919;28;20632;-84
2023/04/19 04:43:52;;;;;;;19.63;15.13;;;;;;;10.11;89.93;98584.72;4170861;28;21093;-84
2023/04/19 04:46:14;;;;;;;19.20;15.13;;;;;;;10.13;89.24;98581.09;4170814;28;20832;-83
2023/04/19 04:48:17;;;;;;;18.50;14.20;;;;;;;10.13;89.92;98583.69;4185396;28;20646;-83
2023/04/19 04:50:21;;;;;;;19.23;14.70;;;;;;;10.20;89.39;98581.56;4186382;28;20647;-83
2023/04/19 04:52:25;;;;;;;18.27;13.60;;;;;;;10.18;89.36;98584.25;4179419;28;20728;-83
2023/04/19 04:54:41;;;;;;;17.50;13.75;;;;;;;10.21;89.17;98586.69;4173793;28;20632;-83
2023/04/19 04:56:56;;;;;;;17.30;13.87;;;;;;;10.11;89.18;98585.53;4186549;28;20595;-84
2023/04/19 04:58:59;;;;;;;21.80;14.30;;;;;;;10.17;89.25;98582.56;4188089;28;20679;-84
2023/04/19 05:01:07;;;;;;;20.63;15.00;;;;;;;10.21;89.19;98578.88;4184689;28;20663;-83
2023/04/19 05:03:14;;;;;;;20.83;14.10;;;;;;;10.20;88.93;98585.00;4193330;28;20620;-84
2023/04/19 05:05:23;;;;;;;18.57;14.07;;;;;;;10.30;88.86;98582.69;4187684;28;20685;-83
2023/04/19 05:07:26;;;;;;;15.33;13.13;;;;;;;10.32;88.50;98579.88;4190758;28;20633;-83
2023/04/19 05:09:31;;;;;;;19.47;14.50;;;;;;;10.38;88.24;98578.69;4188738;28;20638;-83
2023/04/19 05:11:34;;;;;;;18.63;14.20;;;;;;;10.45;88.63;98587.84;4196547;28;20635;-83
2023/04/19 05:13:39;;;;;;;20.83;14.00;;;;;;;10.37;87.74;98580.47;4198113;28;20639;-83
2023/04/19 05:15:42;;;;;;;17.63;14.23;;;;;;;10.40;87.97;98582.03;4191723;28;21224;-83
2023/04/19 05:17:45;;;;;;;18.50;13.87;;;;;;;10.47;88.49;98580.75;4203063;28;20657;-83
2023/04/19 05:19:49;;;;;;;16.55;13.20;;;;;;;10.56;87.77;98583.63;4195191;28;20727;-83
2023/04/19 05:21:53;;;;;;;18.13;13.70;;;;;;;10.66;87.69;98589.13;4192059;28;20202;-83
2023/04/19 05:23:56;;;;;;;20.00;13.70;;;;;;;10.87;86.24;98589.50;4196577;28;20686;-83
2023/04/19 05:25:59;;;;;;;16.90;13.87;;;;;;;11.03;87.42;98595.44;4194924;28;21390;-83
2023/04/19 05:28:03;;;;;;;15.13;12.77;;;;;;;11.25;85.20;98594.97;4188376;28;21215;-83
2023/04/19 05:30:17;;;;;;;18.57;13.47;;;;;;;11.56;86.63;98596.41;4175873;28;20686;-83
2023/04/19 05:32:20;;;;;;;18.63;13.57;;;;;;;11.86;84.47;98600.47;4196053;28;20712;-83
2023/04/19 05:34:32;;;;;;;17.20;13.80;;;;;;;12.14;83.61;98610.78;4173078;28;20671;-83
2023/04/19 05:36:36;;;;;;;22.30;13.30;;;;;;;12.36;81.59;98613.66;4191811;28;20654;-83
2023/04/19 05:38:42;;;;;;;19.43;14.10;;;;;;;12.54;81.72;98605.41;4179331;28;20640;-84
2023/04/19 05:40:45;;;;;;;16.80;13.00;;;;;;;12.71;80.09;98611.16;4175547;28;20975;-84
2023/04/19 05:42:48;;;;;;;15.30;12.50;;;;;;;12.94;79.51;98610.44;4181121;28;21044;-83
2023/04/19 05:44:53;;;;;;;15.40;12.80;;;;;;;13.19;80.66;98611.22;4184081;28;20659;-83
2023/04/19 05:46:57;;;;;;;15.10;12.80;;;;;;;13.45;80.72;98617.25;4170138;28;20652;-84
2023/04/19 05:49:23;;;;;;;18.77;14.00;;;;;;;13.62;78.21;98614.25;4189813;28;21062;-84
2023/04/19 05:51:49;;;;;;;16.63;13.47;;;;;;;13.67;76.71;98621.66;4174587;28;20648;-84
2023/04/19 05:54:06;;;;;;;14.70;12.83;;;;;;;13.85;76.42;98619.53;4179936;28;20635;-84
2023/04/19 05:56:09;;;;;;;13.17;11.77;;;;;;;14.01;75.64;98623.53;4192901;28;21329;-83
2023/04/19 05:58:12;;;;;;;16.73;13.80;;;;;;;14.19;76.37;98620.41;4170109;28;20706;-84
2023/04/19 06:00:16;;;;;;;15.87;13.67;;;;;;;14.44;75.30;98628.13;4187266;28;21250;-84
2023/04/19 06:02:31;;;;;;;15.77;13.30;;;;;;;14.55;74.48;98622.88;4179513;28;20640;-82
2023/04/19 06:04:34;;;;;;;15.07;12.17;;;;;;;14.73;73.60;98624.97;4183568;28;20775;-82
2023/04/19 06:06:38;;;;;;;17.63;12.23;;;;;;;14.88;72.80;98636.09;4172776;28;20657;-82
2023/04/19 06:08:41;;;;;;;15.00;12.53;;;;;;;14.94;70.97;98633.81;4193440;28;20743;-83
2023/04/19 06:10:48;;;;;;;15.03;12.23;;;;;;;14.83;72.74;98628.56;4169156;28;20642;-82
2023/04/19 06:13:00;;;;;;;15.60;13.23;;;;;;;14.58;72.80;98619.19;4195076;28;21202;-80
2023/04/19 06:15:04;;;;;;;17.37;13.00;;;;;;;14.33;73.14;98620.22;4185058;28;20630;-80
2023/04/19 06:17:08;;;;;;;16.27;13.10;;;;;;;13.89;73.89;98613.94;4167910;28;20708;-78
2023/04/19 06:19:12;;;;;;;16.40;13.07;;;;;;;13.58;74.74;98608.41;4187286;28;20640;-79
2023/04/19 06:21:16;;;;;;;15.33;12.07;;;;;;;13.48;74.84;98620.47;4194828;28;20691;-78
2023/04/19 06:23:19;;;;;;;15.03;13.00;;;;;;;13.44;76.03;98612.94;4191173;28;20622;-78
2023/04/19 06:25:22;;;;;;;16.70;12.93;;;;;;;13.53;75.69;98615.78;4185966;28;20636;-78
2023/04/19 06:27:26;;;;;;;17.00;13.37;;;;;;;13.60;75.82;98621.41;4176510;28;20667;-80
2023/04/19 06:29:29;;;;;;;18.30;13.83;;;;;;;13.81;74.79;98621.50;4175875;28;20621;-78
2023/04/19 06:31:32;;;;;;;15.20;12.73;;;;;;;13.85;75.17;98617.72;4175739;28;20643;-78
2023/04/19 06:33:35;;;;;;;17.27;13.67;;;;;;;13.89;74.35;98619.19;4174525;28;20633;-77
2023/04/19 06:35:40;;;;;;;15.03;12.90;;;;;;;13.76;74.84;98618.38;4185337;28;20676;-77
2023/04/19 06:37:43;;;;;;;16.13;13.13;;;;;;;13.70;75.72;98613.59;4175058;28;20643;-78
2023/04/19 06:39:46;;;;;;;17.03;14.10;;;;;;;13.70;75.03;98618.84;4172949;28;20652;-78
2023/04/19 06:41:49;;;;;;;16.33;13.23;;;;;;;13.64;74.46;98617.63;4176597;28;21293;-79
2023/04/19 06:43:52;;;;;;;15.90;12.73;;;;;;;13.61;76.17;98617.84;4167992;28;20746;-79
2023/04/19 06:45:58;;;;;;;16.80;13.43;;;;;;;13.57;75.95;98613.75;4176388;28;20634;-77
2023/04/19 06:48:02;;;;;;;15.63;13.47;;;;;;;13.69;76.65;98611.91;4166149;28;20637;-78
2023/04/19 06:50:06;;;;;;;16.63;12.90;;;;;;;13.76;76.44;98613.16;4188578;28;20669;-78
2023/04/19 06:52:11;;;;;;;15.77;12.37;;;;;;;13.81;75.99;98611.00;4166730;28;20642;-78
2023/04/19 06:54:14;;;;;;;15.80;12.80;;;;;;;13.86;75.52;98608.06;4169820;28;20729;-79
2023/04/19 06:56:18;;;;;;;16.87;13.33;;;;;;;13.96;74.63;98615.16;4180147;28;21277;-77
2023/04/19 06:58:21;;;;;;;16.77;13.13;;;;;;;14.07;74.21;98617.84;4181795;28;20636;-78
2023/04/19 07:00:24;;;;;;;16.20;12.07;;;;;;;14.20;74.07;98614.19;4179609;28;22272;-78
2023/04/19 07:02:27;;;;;;;14.80;12.20;;;;;;;14.30;74.94;98614.38;4183858;28;20647;-78
2023/04/19 07:04:30;;;;;;;14.93;11.70;;;;;;;14.54;74.03;98612.50;4186243;28;20698;-77
2023/04/19 07:06:34;;;;;;;13.23;10.83;;;;;;;14.57;71.73;98604.41;4187825;28;20654;-78
2023/04/19 07:08:39;;;;;;;13.97;12.00;;;;;;;14.41;72.38;98598.66;4177321;28;20698;-78
2023/04/19 07:10:52;;;;;;;14.90;11.93;;;;;;;14.46;73.11;98604.38;4184321;28;20734;-78
2023/04/19 07:12:55;;;;;;;13.17;11.77;;;;;;;14.66;73.92;98607.19;4186733;28;20662;-78
2023/04/19 07:14:58;;;;;;;14.23;11.30;;;;;;;14.86;72.58;98609.09;4186617;28;21072;-77
2023/04/19 07:17:01;;;;;;;14.00;11.70;;;;;;;14.91;73.32;98617.47;4175696;28;20633;-77
2023/04/19 07:19:04;;;;;;;15.43;11.70;;;;;;;15.03;73.76;98614.72;4195485;28;20632;-79
2023/04/19 07:21:07;;;;;;;15.10;12.00;;;;;;;15.11;74.17;98612.34;4191351;28;21004;-79
2023/04/19 07:23:10;;;;;;;14.70;11.80;;;;;;;15.13;71.73;98607.78;4185890;28;20642;-78
2023/04/19 07:25:15;;;;;;;16.07;11.50;;;;;;;15.14;73.69;98604.22;4174463;28;20636;-80
2023/04/19 07:27:18;;;;;;;12.07;10.27;;;;;;;15.27;70.79;98605.78;4175728;28;20759;-80
2023/04/19 07:29:21;;;;;;;16.30;11.30;;;;;;;15.45;69.85;98606.13;4195098;28;20721;-80
2023/04/19 07:31:25;;;;;;;12.90;11.03;;;;;;;15.77;68.02;98611.31;4171984;28;20670;-80
2023/04/19 07:33:28;;;;;;;14.40;11.30;;;;;;;16.13;69.30;98606.53;4184875;28;20733;-80
2023/04/19 07:35:31;;;;;;;12.77;11.30;;;;;;;16.33;68.53;98612.81;4187547;28;20646;-80
2023/04/19 07:37:35;;;;;;;14.53;11.57;;;;;;;16.47;67.11;98602.78;4186538;28;20650;-79
2023/04/19 07:39:38;;;;;;;12.77;11.10;;;;;;;16.17;66.99;98605.28;4174456;28;20643;-79
2023/04/19 07:41:42;;;;;;;12.03;10.37;;;;;;;15.88;68.38;98590.22;4188790;28;20644;-79
2023/04/19 07:43:45;;;;;;;12.27;10.97;;;;;;;15.79;70.18;98598.88;4171915;28;20659;-79
2023/04/19 07:45:48;;;;;;;14.40;11.60;;;;;;;15.53;69.57;98590.56;4187338;28;20623;-79
2023/04/19 07:47:52;;;;;;;14.50;11.60;;;;;;;15.40;70.29;98587.25;4184767;28;20693;-79
2023/04/19 07:49:55;;;;;;;12.93;11.30;;;;;;;15.36;69.39;98593.72;4188121;28;20666;-79
2023/04/19 07:51:58;;;;;;;13.27;11.83;;;;;;;15.14;69.31;98593.72;4183109;28;20631;-79
2023/04/19 07:54:02;;;;;;;12.90;10.73;;;;;;;14.90;70.96;98589.50;4190543;28;20639;-79
2023/04/19 07:56:06;;;;;;;13.33;10.90;;;;;;;14.78;70.46;98583.44;4186542;28;20629;-79
2023/04/19 07:58:11;;;;;;;12.80;11.13;;;;;;;14.71;71.12;98584.03;4173441;28;20689;-79
2023/04/19 08:00:15;;;;;;;13.73;12.33;;;;;;;14.57;71.88;98572.88;4183628;28;20682;-79
2023/04/19 08:02:18;;;;;;;15.87;12.60;;;;;;;14.35;71.99;98570.25;4185067;28;21282;-79
2023/04/19 08:04:21;;;;;;;15.73;11.80;;;;;;;14.30;73.16;98567.13;4185904;28;20725;-79
2023/04/19 08:06:26;;;;;;;16.17;12.63;;;;;;;14.17;73.96;98572.44;4183466;28;20664;-79
2023/04/19 08:08:29;;;;;;;14.13;11.10;;;;;;;14.21;73.60;98562.59;4186717;28;20660;-79
2023/04/19 08:10:34;;;;;;;15.30;11.70;;;;;;;14.23;73.39;98571.16;4187004;28;21251;-79
2023/04/19 08:12:37;;;;;;;15.70;12.73;;;;;;;14.26;73.68;98577.00;4184183;28;20623;-80
2023/04/19 08:14:53;;;;;;;15.17;12.30;;;;;;;14.27;73.87;98572.63;4189113;28;20626;-80
2023/04/19 08:17:13;;;;;;;14.87;12.30;;;;;;;13.77;74.45;98575.50;4169497;28;20693;-80
2023/04/19 08:19:30;;;;;;;16.90;12.87;;;;;;;13.39;76.70;98570.53;4186771;28;21334;-80
2023/04/19 08:21:33;;;;;;;16.73;13.87;;;;;;;13.47;76.17;98562.94;4184313;28;20647;-79
2023/04/19 08:23:43;;;;;;;16.20;13.33;;;;;;;13.36;76.83;98575.97;4187114;28;20650;-79
2023/04/19 08:25:51;;;;;;;15.63;12.60;;;;;;;13.40;77.38;98564.34;4182352;28;20730;-79
2023/04/19 08:27:54;;;;;;;17.90;13.60;;;;;;;13.27;78.06;98561.75;4185813;28;20651;-79
2023/04/19 08:29:58;;;;;;;17.00;12.80;;;;;;;13.33;78.16;98561.31;4186240;28;21030;-79
2023/04/19 08:32:02;;;;;;;14.53;12.20;;;;;;;13.43;77.52;98564.94;4184975;28;20689;-79
2023/04/19 08:34:05;;;;;;;16.60;12.77;;;;;;;13.51;78.22;98567.03;4186796;28;20643;-80
2023/04/19 08:36:09;;;;;;;17.40;13.77;;;;;;;13.47;77.96;98557.69;4180327;28;20648;-79
2023/04/19 08:38:12;;;;;;;16.97;13.17;;;;;;;13.63;77.84;98558.28;4202520;28;20620;-83
2023/04/19 08:40:17;;;;;;;14.80;11.43;;;;;;;13.84;78.63;98562.78;4182809;28;20648;-83
2023/04/19 08:42:20;;;;;;;16.20;13.07;;;;;;;14.05;76.87;98556.78;4182567;28;21068;-84
2023/04/19 08:44:39;;;;;;;14.87;13.03;;;;;;;14.16;76.21;98551.56;4183546;28;21239;-82
2023/04/19 08:47:05;;;;;;;14.33;11.33;;;;;;;14.25;77.41;98550.88;4170140;28;20625;-82
2023/04/19 08:49:08;;;;;;;16.10;12.30;;;;;;;14.40;77.03;98552.34;4187773;28;20728;-82
2023/04/19 08:51:12;;;;;;;15.20;12.33;;;;;;;14.56;78.33;98550.25;4184729;28;20624;-82
2023/04/19 08:53:15;;;;;;;14.47;12.40;;;;;;;14.56;74.83;98551.06;4185112;28;20635;-81
2023/04/19 08:55:28;;;;;;;14.70;12.27;;;;;;;14.59;75.87;98556.91;4182244;28;20633;-82
2023/04/19 08:57:31;;;;;;;15.97;12.57;;;;;;;14.36;74.53;98540.44;4180384;28;21289;-82
2023/04/19 08:59:35;;;;;;;14.33;11.67;;;;;;;14.27;74.89;98541.13;4172299;28;21297;-82
2023/04/19 09:01:38;;;;;;;15.63;12.37;;;;;;;14.25;73.88;98543.00;4167249;28;20676;-81
2023/04/19 09:03:45;;;;;;;15.80;12.80;;;;;;;14.00;74.96;98529.22;4182542;28;21545;-81
2023/04/19 09:06:05;;;;;;;15.70;12.30;;;;;;;14.04;75.54;98528.03;4184314;28;21254;-81
2023/04/19 09:08:22;;;;;;;14.10;12.23;;;;;;;14.12;75.85;98529.16;4199562;28;20743;-81
2023/04/19 09:10:26;;;;;;;13.67;11.87;;;;;;;14.16;74.91;98530.59;4167145;28;20645;-81
2023/04/19 09:12:29;;;;;;;13.23;11.17;;;;;;;14.12;74.42;98530.94;4179201;28;20648;-81
2023/04/19 09:14:32;;;;;;;13.73;11.20;;;;;;;13.97;74.46;98525.03;4179381;28;20667;-81
2023/04/19 09:16:36;;;;;;;13.70;11.80;;;;;;;13.95;75.11;98523.47;4181825;28;20735;-80
2023/04/19 09:18:56;;;;;;;13.90;11.73;;;;;;;13.94;76.46;98533.13;4187482;28;20802;-80
2023/04/19 09:21:27;;;;;;;17.13;11.67;;;;;;;13.90;77.00;98523.81;4187157;28;20743;-80
2023/04/19 09:23:30;;;;;;;13.67;12.00;;;;;;;13.86;76.29;98532.03;4171239;28;20653;-81
2023/04/19 09:25:36;;;;;;;14.43;11.50;;;;;;;13.75;75.14;98522.31;4170258;28;21134;-80
2023/04/19 09:28:09;;;;;;;14.43;12.20;;;;;;;13.67;75.56;98518.63;4183466;28;20702;-80
2023/04/19 09:30:12;;;;;;;14.50;11.47;;;;;;;13.70;75.46;98511.34;4186825;28;20630;-80
2023/04/19 09:32:46;;;;;;;12.47;11.10;;;;;;;13.67;76.34;98514.19;4182877;28;20632;-80
2023/04/19 09:34:55;;;;;;;16.90;10.77;;;;;;;13.67;75.42;98514.19;4171697;28;20651;-80
2023/04/19 09:36:58;;;;;;;13.73;11.63;;;;;;;13.69;75.46;98514.91;4179269;28;20982;-81